sensor_id;sensor_type;location;lat;lon;timestamp;P1;durP1;ratioP1;P2;durP2;ratioP2
68432;SDS011;55412;51.350;17.056;2023-01-29T00:00:01;7.00;;;2.25;;
68432;SDS011;55412;51.350;17.056;2023-01-29T00:02:34;9.15;;;2.22;;
68432;SDS011;55412;51.350;17.056;2023-01-29T00:05:01;7.38;;;2.42;;
68432;SDS011;55412;51.350;17.056;2023-01-29T00:07:29;7.57;;;2.77;;
68432;SDS011;55412;51.350;17.056;2023-01-29T00:09:56;7.80;;;2.42;;
68432;SDS011;55412;51.350;17.056;2023-01-29T00:12:22;7.95;;;3.03;;
68432;SDS011;55412;51.350;17.056;2023-01-29T00:14:48;8.70;;;2.70;;
68432;SDS011;55412;51.350;17.056;2023-01-29T00:17:14;7.27;;;2.63;;
68432;SDS011;55412;51.350;17.056;2023-01-29T00:19:40;8.98;;;2.22;;
68432;SDS011;55412;51.350;17.056;2023-01-29T00:22:06;9.75;;;2.53;;
68432;SDS011;55412;51.350;17.056;2023-01-29T00:24:32;9.60;;;2.38;;
68432;SDS011;55412;51.350;17.056;2023-01-29T00:26:58;7.32;;;2.53;;
68432;SDS011;55412;51.350;17.056;2023-01-29T00:29:24;7.70;;;2.73;;
68432;SDS011;55412;51.350;17.056;2023-01-29T00:31:50;8.40;;;2.53;;
68432;SDS011;55412;51.350;17.056;2023-01-29T00:34:16;9.48;;;2.78;;
68432;SDS011;55412;51.350;17.056;2023-01-29T00:36:42;8.40;;;2.97;;
68432;SDS011;55412;51.350;17.056;2023-01-29T00:39:09;8.87;;;2.83;;
68432;SDS011;55412;51.350;17.056;2023-01-29T00:41:36;11.75;;;3.20;;
68432;SDS011;55412;51.350;17.056;2023-01-29T00:44:21;7.63;;;2.25;;
68432;SDS011;55412;51.350;17.056;2023-01-29T00:47:05;11.40;;;3.08;;
68432;SDS011;55412;51.350;17.056;2023-01-29T00:49:50;7.00;;;2.67;;
68432;SDS011;55412;51.350;17.056;2023-01-29T00:52:16;5.77;;;1.80;;
68432;SDS011;55412;51.350;17.056;2023-01-29T00:54:48;7.55;;;2.20;;
68432;SDS011;55412;51.350;17.056;2023-01-29T00:57:18;9.98;;;2.97;;
68432;SDS011;55412;51.350;17.056;2023-01-29T00:59:45;6.78;;;2.60;;
68432;SDS011;55412;51.350;17.056;2023-01-29T01:02:11;10.52;;;3.03;;
68432;SDS011;55412;51.350;17.056;2023-01-29T01:04:55;6.40;;;2.40;;
68432;SDS011;55412;51.350;17.056;2023-01-29T01:07:22;7.30;;;2.75;;
68432;SDS011;55412;51.350;17.056;2023-01-29T01:09:48;9.20;;;2.28;;
68432;SDS011;55412;51.350;17.056;2023-01-29T01:12:33;9.48;;;2.55;;
68432;SDS011;55412;51.350;17.056;2023-01-29T01:14:59;8.20;;;2.00;;
68432;SDS011;55412;51.350;17.056;2023-01-29T01:17:25;9.43;;;1.93;;
68432;SDS011;55412;51.350;17.056;2023-01-29T01:19:51;6.70;;;1.80;;
68432;SDS011;55412;51.350;17.056;2023-01-29T01:22:17;8.00;;;2.38;;
68432;SDS011;55412;51.350;17.056;2023-01-29T01:24:43;10.05;;;2.65;;
68432;SDS011;55412;51.350;17.056;2023-01-29T01:27:10;11.45;;;3.08;;
68432;SDS011;55412;51.350;17.056;2023-01-29T01:29:36;11.33;;;2.60;;
68432;SDS011;55412;51.350;17.056;2023-01-29T01:32:03;10.68;;;3.50;;
68432;SDS011;55412;51.350;17.056;2023-01-29T01:34:30;8.50;;;2.50;;
68432;SDS011;55412;51.350;17.056;2023-01-29T01:36:56;7.18;;;2.75;;
68432;SDS011;55412;51.350;17.056;2023-01-29T01:39:22;9.10;;;2.20;;
68432;SDS011;55412;51.350;17.056;2023-01-29T01:41:49;10.47;;;2.87;;
68432;SDS011;55412;51.350;17.056;2023-01-29T01:47:39;10.02;;;3.10;;
68432;SDS011;55412;51.350;17.056;2023-01-29T01:50:30;10.18;;;3.08;;
68432;SDS011;55412;51.350;17.056;2023-01-29T01:53:16;10.93;;;2.92;;
68432;SDS011;55412;51.350;17.056;2023-01-29T01:55:54;9.70;;;3.00;;
68432;SDS011;55412;51.350;17.056;2023-01-29T01:58:36;10.45;;;3.30;;
68432;SDS011;55412;51.350;17.056;2023-01-29T02:01:19;9.82;;;2.90;;
68432;SDS011;55412;51.350;17.056;2023-01-29T02:04:08;9.23;;;2.47;;
68432;SDS011;55412;51.350;17.056;2023-01-29T02:07:02;8.50;;;2.70;;
68432;SDS011;55412;51.350;17.056;2023-01-29T02:10:00;7.63;;;2.50;;
68432;SDS011;55412;51.350;17.056;2023-01-29T02:12:38;9.23;;;2.70;;
68432;SDS011;55412;51.350;17.056;2023-01-29T02:15:05;9.07;;;2.65;;
68432;SDS011;55412;51.350;17.056;2023-01-29T02:17:32;9.52;;;2.65;;
68432;SDS011;55412;51.350;17.056;2023-01-29T02:22:41;8.73;;;2.13;;
68432;SDS011;55412;51.350;17.056;2023-01-29T02:33:39;6.80;;;1.95;;
68432;SDS011;55412;51.350;17.056;2023-01-29T02:36:30;9.50;;;2.07;;
68432;SDS011;55412;51.350;17.056;2023-01-29T02:39:07;8.95;;;2.38;;
68432;SDS011;55412;51.350;17.056;2023-01-29T02:41:48;7.25;;;2.05;;
68432;SDS011;55412;51.350;17.056;2023-01-29T02:44:54;7.50;;;1.90;;
68432;SDS011;55412;51.350;17.056;2023-01-29T02:50:21;8.83;;;1.97;;
68432;SDS011;55412;51.350;17.056;2023-01-29T02:53:01;8.02;;;2.00;;
68432;SDS011;55412;51.350;17.056;2023-01-29T02:55:56;9.15;;;1.98;;
68432;SDS011;55412;51.350;17.056;2023-01-29T02:58:41;8.02;;;2.25;;
68432;SDS011;55412;51.350;17.056;2023-01-29T03:01:12;6.93;;;2.03;;
68432;SDS011;55412;51.350;17.056;2023-01-29T03:03:55;6.80;;;1.97;;
68432;SDS011;55412;51.350;17.056;2023-01-29T03:06:30;6.93;;;2.40;;
68432;SDS011;55412;51.350;17.056;2023-01-29T03:09:03;7.93;;;2.08;;
68432;SDS011;55412;51.350;17.056;2023-01-29T03:11:46;8.70;;;2.20;;
68432;SDS011;55412;51.350;17.056;2023-01-29T03:14:20;6.72;;;1.85;;
68432;SDS011;55412;51.350;17.056;2023-01-29T03:17:19;9.53;;;2.10;;
68432;SDS011;55412;51.350;17.056;2023-01-29T03:19:50;8.43;;;2.50;;
68432;SDS011;55412;51.350;17.056;2023-01-29T03:22:16;6.95;;;2.10;;
68432;SDS011;55412;51.350;17.056;2023-01-29T03:24:54;6.72;;;2.38;;
68432;SDS011;55412;51.350;17.056;2023-01-29T03:30:59;7.70;;;2.63;;
68432;SDS011;55412;51.350;17.056;2023-01-29T03:36:28;11.32;;;2.88;;
68432;SDS011;55412;51.350;17.056;2023-01-29T03:39:09;7.20;;;2.17;;
68432;SDS011;55412;51.350;17.056;2023-01-29T03:41:57;8.05;;;2.75;;
68432;SDS011;55412;51.350;17.056;2023-01-29T03:44:50;8.23;;;2.30;;
68432;SDS011;55412;51.350;17.056;2023-01-29T03:50:43;9.45;;;2.67;;
68432;SDS011;55412;51.350;17.056;2023-01-29T03:53:23;9.38;;;2.45;;
68432;SDS011;55412;51.350;17.056;2023-01-29T03:56:20;7.70;;;2.25;;
68432;SDS011;55412;51.350;17.056;2023-01-29T03:59:15;9.10;;;2.40;;
68432;SDS011;55412;51.350;17.056;2023-01-29T04:01:55;7.78;;;2.53;;
68432;SDS011;55412;51.350;17.056;2023-01-29T04:04:26;7.90;;;2.42;;
68432;SDS011;55412;51.350;17.056;2023-01-29T04:07:16;7.85;;;2.65;;
68432;SDS011;55412;51.350;17.056;2023-01-29T04:10:22;7.85;;;2.42;;
68432;SDS011;55412;51.350;17.056;2023-01-29T04:12:48;11.13;;;2.77;;
68432;SDS011;55412;51.350;17.056;2023-01-29T04:15:23;9.95;;;2.88;;
68432;SDS011;55412;51.350;17.056;2023-01-29T04:17:54;9.40;;;2.20;;
68432;SDS011;55412;51.350;17.056;2023-01-29T04:20:21;7.00;;;2.30;;
68432;SDS011;55412;51.350;17.056;2023-01-29T04:22:48;7.07;;;2.15;;
68432;SDS011;55412;51.350;17.056;2023-01-29T04:25:22;7.50;;;2.30;;
68432;SDS011;55412;51.350;17.056;2023-01-29T04:33:38;9.05;;;2.20;;
68432;SDS011;55412;51.350;17.056;2023-01-29T04:50:33;9.93;;;2.17;;
68432;SDS011;55412;51.350;17.056;2023-01-29T04:55:48;7.60;;;2.10;;
68432;SDS011;55412;51.350;17.056;2023-01-29T04:58:25;5.85;;;1.70;;
68432;SDS011;55412;51.350;17.056;2023-01-29T05:01:18;7.55;;;1.98;;
68432;SDS011;55412;51.350;17.056;2023-01-29T05:03:48;7.97;;;2.10;;
68432;SDS011;55412;51.350;17.056;2023-01-29T05:06:15;5.97;;;1.60;;
68432;SDS011;55412;51.350;17.056;2023-01-29T05:08:44;5.53;;;1.58;;
68432;SDS011;55412;51.350;17.056;2023-01-29T05:11:12;6.20;;;1.52;;
68432;SDS011;55412;51.350;17.056;2023-01-29T05:13:38;7.22;;;1.88;;
68432;SDS011;55412;51.350;17.056;2023-01-29T05:16:13;6.72;;;2.10;;
68432;SDS011;55412;51.350;17.056;2023-01-29T05:18:50;9.07;;;1.80;;
68432;SDS011;55412;51.350;17.056;2023-01-29T05:21:16;6.47;;;2.25;;
68432;SDS011;55412;51.350;17.056;2023-01-29T05:23:44;7.20;;;2.20;;
68432;SDS011;55412;51.350;17.056;2023-01-29T05:26:21;8.48;;;1.80;;
68432;SDS011;55412;51.350;17.056;2023-01-29T05:29:05;8.73;;;2.72;;
68432;SDS011;55412;51.350;17.056;2023-01-29T05:31:32;6.07;;;1.63;;
68432;SDS011;55412;51.350;17.056;2023-01-29T05:33:57;7.63;;;2.08;;
68432;SDS011;55412;51.350;17.056;2023-01-29T05:36:23;6.20;;;1.60;;
68432;SDS011;55412;51.350;17.056;2023-01-29T05:38:50;5.68;;;1.95;;
68432;SDS011;55412;51.350;17.056;2023-01-29T05:41:16;7.30;;;2.00;;
68432;SDS011;55412;51.350;17.056;2023-01-29T05:43:42;10.25;;;2.08;;
68432;SDS011;55412;51.350;17.056;2023-01-29T05:46:09;7.75;;;2.28;;
68432;SDS011;55412;51.350;17.056;2023-01-29T05:48:35;6.72;;;2.42;;
68432;SDS011;55412;51.350;17.056;2023-01-29T05:51:04;7.03;;;1.97;;
68432;SDS011;55412;51.350;17.056;2023-01-29T05:53:30;6.65;;;2.05;;
68432;SDS011;55412;51.350;17.056;2023-01-29T05:55:59;8.45;;;2.47;;
68432;SDS011;55412;51.350;17.056;2023-01-29T05:58:26;8.73;;;2.53;;
68432;SDS011;55412;51.350;17.056;2023-01-29T06:00:54;6.15;;;2.33;;
68432;SDS011;55412;51.350;17.056;2023-01-29T06:03:20;6.00;;;1.53;;
68432;SDS011;55412;51.350;17.056;2023-01-29T06:05:46;6.82;;;2.40;;
68432;SDS011;55412;51.350;17.056;2023-01-29T06:08:12;7.13;;;2.35;;
68432;SDS011;55412;51.350;17.056;2023-01-29T06:10:38;9.15;;;2.60;;
68432;SDS011;55412;51.350;17.056;2023-01-29T06:13:04;6.72;;;2.13;;
68432;SDS011;55412;51.350;17.056;2023-01-29T06:15:31;6.70;;;2.33;;
68432;SDS011;55412;51.350;17.056;2023-01-29T06:17:57;7.60;;;2.28;;
68432;SDS011;55412;51.350;17.056;2023-01-29T06:20:23;9.30;;;2.28;;
68432;SDS011;55412;51.350;17.056;2023-01-29T06:22:49;5.95;;;2.42;;
68432;SDS011;55412;51.350;17.056;2023-01-29T06:25:15;9.88;;;2.03;;
68432;SDS011;55412;51.350;17.056;2023-01-29T06:27:41;6.50;;;2.43;;
68432;SDS011;55412;51.350;17.056;2023-01-29T06:30:07;7.10;;;2.50;;
68432;SDS011;55412;51.350;17.056;2023-01-29T06:32:34;7.82;;;2.20;;
68432;SDS011;55412;51.350;17.056;2023-01-29T06:35:00;6.40;;;2.10;;
68432;SDS011;55412;51.350;17.056;2023-01-29T06:37:26;7.90;;;2.60;;
68432;SDS011;55412;51.350;17.056;2023-01-29T06:39:52;8.60;;;2.40;;
68432;SDS011;55412;51.350;17.056;2023-01-29T06:42:18;8.38;;;2.70;;
68432;SDS011;55412;51.350;17.056;2023-01-29T06:44:51;6.07;;;2.17;;
68432;SDS011;55412;51.350;17.056;2023-01-29T06:47:21;11.43;;;3.40;;
68432;SDS011;55412;51.350;17.056;2023-01-29T06:49:48;7.47;;;2.80;;
68432;SDS011;55412;51.350;17.056;2023-01-29T06:52:14;6.47;;;2.27;;
68432;SDS011;55412;51.350;17.056;2023-01-29T06:54:40;8.15;;;2.35;;
68432;SDS011;55412;51.350;17.056;2023-01-29T06:57:06;6.13;;;2.20;;
68432;SDS011;55412;51.350;17.056;2023-01-29T06:59:32;5.90;;;2.35;;
68432;SDS011;55412;51.350;17.056;2023-01-29T07:01:58;8.00;;;2.90;;
68432;SDS011;55412;51.350;17.056;2023-01-29T07:04:24;7.78;;;2.20;;
68432;SDS011;55412;51.350;17.056;2023-01-29T07:06:50;8.43;;;2.83;;
68432;SDS011;55412;51.350;17.056;2023-01-29T07:09:16;8.55;;;2.92;;
68432;SDS011;55412;51.350;17.056;2023-01-29T07:11:42;11.95;;;3.10;;
68432;SDS011;55412;51.350;17.056;2023-01-29T07:14:08;7.27;;;2.60;;
68432;SDS011;55412;51.350;17.056;2023-01-29T07:16:34;7.85;;;2.80;;
68432;SDS011;55412;51.350;17.056;2023-01-29T07:19:00;9.75;;;3.20;;
68432;SDS011;55412;51.350;17.056;2023-01-29T07:21:26;11.13;;;3.10;;
68432;SDS011;55412;51.350;17.056;2023-01-29T07:23:53;7.28;;;2.47;;
68432;SDS011;55412;51.350;17.056;2023-01-29T07:26:20;7.03;;;2.60;;
68432;SDS011;55412;51.350;17.056;2023-01-29T07:28:46;9.57;;;3.25;;
68432;SDS011;55412;51.350;17.056;2023-01-29T07:31:12;9.80;;;3.13;;
68432;SDS011;55412;51.350;17.056;2023-01-29T07:33:39;7.00;;;2.00;;
68432;SDS011;55412;51.350;17.056;2023-01-29T07:36:08;8.23;;;2.92;;
68432;SDS011;55412;51.350;17.056;2023-01-29T07:38:36;7.40;;;2.77;;
68432;SDS011;55412;51.350;17.056;2023-01-29T07:41:03;7.45;;;2.72;;
68432;SDS011;55412;51.350;17.056;2023-01-29T07:43:29;7.22;;;2.78;;
68432;SDS011;55412;51.350;17.056;2023-01-29T07:45:59;6.95;;;2.63;;
68432;SDS011;55412;51.350;17.056;2023-01-29T07:48:27;6.95;;;2.63;;
68432;SDS011;55412;51.350;17.056;2023-01-29T07:50:56;6.43;;;2.50;;
68432;SDS011;55412;51.350;17.056;2023-01-29T07:53:23;6.05;;;2.28;;
68432;SDS011;55412;51.350;17.056;2023-01-29T07:55:49;8.25;;;3.25;;
68432;SDS011;55412;51.350;17.056;2023-01-29T07:58:15;6.68;;;2.83;;
68432;SDS011;55412;51.350;17.056;2023-01-29T08:00:41;8.63;;;3.75;;
68432;SDS011;55412;51.350;17.056;2023-01-29T08:03:12;7.13;;;2.73;;
68432;SDS011;55412;51.350;17.056;2023-01-29T08:05:44;11.18;;;3.10;;
68432;SDS011;55412;51.350;17.056;2023-01-29T08:08:11;10.40;;;2.97;;
68432;SDS011;55412;51.350;17.056;2023-01-29T08:10:38;8.65;;;3.45;;
68432;SDS011;55412;51.350;17.056;2023-01-29T08:13:05;8.73;;;3.40;;
68432;SDS011;55412;51.350;17.056;2023-01-29T08:15:32;9.70;;;3.47;;
68432;SDS011;55412;51.350;17.056;2023-01-29T08:17:59;7.75;;;3.13;;
68432;SDS011;55412;51.350;17.056;2023-01-29T08:20:26;8.45;;;3.33;;
68432;SDS011;55412;51.350;17.056;2023-01-29T08:23:03;8.77;;;3.47;;
68432;SDS011;55412;51.350;17.056;2023-01-29T08:25:32;10.73;;;3.53;;
68432;SDS011;55412;51.350;17.056;2023-01-29T08:27:59;10.60;;;3.97;;
68432;SDS011;55412;51.350;17.056;2023-01-29T08:30:26;8.95;;;3.47;;
68432;SDS011;55412;51.350;17.056;2023-01-29T08:32:55;9.32;;;3.47;;
68432;SDS011;55412;51.350;17.056;2023-01-29T08:35:22;9.95;;;3.53;;
68432;SDS011;55412;51.350;17.056;2023-01-29T08:37:52;11.27;;;3.40;;
68432;SDS011;55412;51.350;17.056;2023-01-29T08:40:20;7.73;;;3.23;;
68432;SDS011;55412;51.350;17.056;2023-01-29T08:42:46;10.48;;;3.08;;
68432;SDS011;55412;51.350;17.056;2023-01-29T08:45:12;7.82;;;3.50;;
68432;SDS011;55412;51.350;17.056;2023-01-29T08:47:43;8.15;;;3.10;;
68432;SDS011;55412;51.350;17.056;2023-01-29T08:50:14;8.43;;;3.30;;
68432;SDS011;55412;51.350;17.056;2023-01-29T08:52:41;9.60;;;3.55;;
68432;SDS011;55412;51.350;17.056;2023-01-29T08:55:08;9.18;;;3.45;;
68432;SDS011;55412;51.350;17.056;2023-01-29T08:57:36;12.05;;;3.60;;
68432;SDS011;55412;51.350;17.056;2023-01-29T09:00:03;7.53;;;3.20;;
68432;SDS011;55412;51.350;17.056;2023-01-29T09:02:32;10.80;;;3.83;;
68432;SDS011;55412;51.350;17.056;2023-01-29T09:04:59;8.15;;;3.38;;
68432;SDS011;55412;51.350;17.056;2023-01-29T09:07:24;8.82;;;3.42;;
68432;SDS011;55412;51.350;17.056;2023-01-29T09:09:50;11.65;;;3.72;;
68432;SDS011;55412;51.350;17.056;2023-01-29T09:12:17;9.60;;;3.40;;
68432;SDS011;55412;51.350;17.056;2023-01-29T09:14:45;12.67;;;4.30;;
68432;SDS011;55412;51.350;17.056;2023-01-29T09:17:12;9.48;;;3.95;;
68432;SDS011;55412;51.350;17.056;2023-01-29T09:19:38;11.55;;;4.22;;
68432;SDS011;55412;51.350;17.056;2023-01-29T09:22:04;10.57;;;4.07;;
68432;SDS011;55412;51.350;17.056;2023-01-29T09:24:33;10.30;;;4.05;;
68432;SDS011;55412;51.350;17.056;2023-01-29T09:27:01;12.23;;;4.17;;
68432;SDS011;55412;51.350;17.056;2023-01-29T09:29:29;11.23;;;4.25;;
68432;SDS011;55412;51.350;17.056;2023-01-29T09:31:55;10.10;;;4.25;;
68432;SDS011;55412;51.350;17.056;2023-01-29T09:34:21;10.25;;;3.97;;
68432;SDS011;55412;51.350;17.056;2023-01-29T09:36:47;10.10;;;4.20;;
68432;SDS011;55412;51.350;17.056;2023-01-29T09:39:13;12.35;;;4.03;;
68432;SDS011;55412;51.350;17.056;2023-01-29T09:47:19;9.50;;;4.28;;
68432;SDS011;55412;51.350;17.056;2023-01-29T09:49:51;9.33;;;3.77;;
68432;SDS011;55412;51.350;17.056;2023-01-29T09:52:36;9.73;;;4.65;;
68432;SDS011;55412;51.350;17.056;2023-01-29T09:55:27;10.55;;;4.68;;
68432;SDS011;55412;51.350;17.056;2023-01-29T10:01:19;10.23;;;4.60;;
68432;SDS011;55412;51.350;17.056;2023-01-29T10:07:50;11.55;;;4.72;;
68432;SDS011;55412;51.350;17.056;2023-01-29T10:16:36;10.00;;;4.10;;
68432;SDS011;55412;51.350;17.056;2023-01-29T10:25:09;8.18;;;3.40;;
68432;SDS011;55412;51.350;17.056;2023-01-29T10:27:44;10.23;;;4.18;;
68432;SDS011;55412;51.350;17.056;2023-01-29T10:30:32;11.35;;;4.05;;
68432;SDS011;55412;51.350;17.056;2023-01-29T10:33:04;9.83;;;3.57;;
68432;SDS011;55412;51.350;17.056;2023-01-29T10:35:43;11.30;;;3.97;;
68432;SDS011;55412;51.350;17.056;2023-01-29T10:50:47;9.35;;;3.58;;
68432;SDS011;55412;51.350;17.056;2023-01-29T10:54:28;9.20;;;3.15;;
68432;SDS011;55412;51.350;17.056;2023-01-29T10:57:01;12.50;;;3.53;;
68432;SDS011;55412;51.350;17.056;2023-01-29T11:00:09;8.48;;;3.40;;
68432;SDS011;55412;51.350;17.056;2023-01-29T11:02:51;11.17;;;3.63;;
68432;SDS011;55412;51.350;17.056;2023-01-29T11:05:18;8.48;;;3.05;;
68432;SDS011;55412;51.350;17.056;2023-01-29T11:07:53;10.57;;;3.42;;
68432;SDS011;55412;51.350;17.056;2023-01-29T11:10:32;11.05;;;3.55;;
68432;SDS011;55412;51.350;17.056;2023-01-29T11:13:10;10.57;;;3.42;;
68432;SDS011;55412;51.350;17.056;2023-01-29T11:15:39;11.83;;;4.03;;
68432;SDS011;55412;51.350;17.056;2023-01-29T11:20:42;10.23;;;3.47;;
68432;SDS011;55412;51.350;17.056;2023-01-29T11:23:30;12.68;;;4.03;;
68432;SDS011;55412;51.350;17.056;2023-01-29T11:25:58;9.82;;;4.10;;
68432;SDS011;55412;51.350;17.056;2023-01-29T11:28:41;12.18;;;4.28;;
68432;SDS011;55412;51.350;17.056;2023-01-29T11:31:28;12.18;;;4.55;;
68432;SDS011;55412;51.350;17.056;2023-01-29T11:34:05;10.23;;;3.03;;
68432;SDS011;55412;51.350;17.056;2023-01-29T11:36:43;9.45;;;3.70;;
68432;SDS011;55412;51.350;17.056;2023-01-29T11:39:12;8.77;;;3.45;;
68432;SDS011;55412;51.350;17.056;2023-01-29T11:41:46;9.30;;;4.03;;
68432;SDS011;55412;51.350;17.056;2023-01-29T11:44:40;10.70;;;3.63;;
68432;SDS011;55412;51.350;17.056;2023-01-29T11:47:09;11.50;;;4.03;;
68432;SDS011;55412;51.350;17.056;2023-01-29T11:49:56;10.27;;;3.13;;
68432;SDS011;55412;51.350;17.056;2023-01-29T11:52:38;10.23;;;3.55;;
68432;SDS011;55412;51.350;17.056;2023-01-29T11:55:23;13.05;;;3.80;;
68432;SDS011;55412;51.350;17.056;2023-01-29T11:58:14;11.60;;;4.10;;
68432;SDS011;55412;51.350;17.056;2023-01-29T12:00:45;12.13;;;4.33;;
68432;SDS011;55412;51.350;17.056;2023-01-29T12:06:02;12.98;;;3.80;;
68432;SDS011;55412;51.350;17.056;2023-01-29T12:08:42;12.52;;;4.05;;
68432;SDS011;55412;51.350;17.056;2023-01-29T12:11:13;14.77;;;4.88;;
68432;SDS011;55412;51.350;17.056;2023-01-29T12:13:55;11.20;;;4.03;;
68432;SDS011;55412;51.350;17.056;2023-01-29T12:16:38;12.30;;;4.60;;
68432;SDS011;55412;51.350;17.056;2023-01-29T12:22:26;10.73;;;4.00;;
68432;SDS011;55412;51.350;17.056;2023-01-29T12:25:55;9.15;;;3.75;;
68432;SDS011;55412;51.350;17.056;2023-01-29T12:40:43;10.45;;;4.40;;
68432;SDS011;55412;51.350;17.056;2023-01-29T12:43:16;9.87;;;4.03;;
68432;SDS011;55412;51.350;17.056;2023-01-29T12:45:49;12.38;;;4.57;;
68432;SDS011;55412;51.350;17.056;2023-01-29T12:48:20;11.10;;;4.55;;
68432;SDS011;55412;51.350;17.056;2023-01-29T12:51:09;9.52;;;4.05;;
68432;SDS011;55412;51.350;17.056;2023-01-29T12:53:53;12.80;;;4.70;;
68432;SDS011;55412;51.350;17.056;2023-01-29T12:56:31;10.63;;;4.00;;
68432;SDS011;55412;51.350;17.056;2023-01-29T12:59:19;13.00;;;4.57;;
68432;SDS011;55412;51.350;17.056;2023-01-29T13:02:05;12.88;;;4.03;;
68432;SDS011;55412;51.350;17.056;2023-01-29T13:05:14;13.55;;;4.03;;
68432;SDS011;55412;51.350;17.056;2023-01-29T13:07:56;9.40;;;3.75;;
68432;SDS011;55412;51.350;17.056;2023-01-29T13:10:48;11.53;;;4.00;;
68432;SDS011;55412;51.350;17.056;2023-01-29T13:16:09;10.73;;;4.10;;
68432;SDS011;55412;51.350;17.056;2023-01-29T13:18:43;9.82;;;3.30;;
68432;SDS011;55412;51.350;17.056;2023-01-29T13:21:16;9.38;;;3.83;;
68432;SDS011;55412;51.350;17.056;2023-01-29T13:23:47;13.63;;;4.20;;
68432;SDS011;55412;51.350;17.056;2023-01-29T13:26:16;12.02;;;4.63;;
68432;SDS011;55412;51.350;17.056;2023-01-29T13:28:44;10.38;;;3.45;;
68432;SDS011;55412;51.350;17.056;2023-01-29T13:31:12;11.75;;;3.80;;
68432;SDS011;55412;51.350;17.056;2023-01-29T13:34:14;9.25;;;3.33;;
68432;SDS011;55412;51.350;17.056;2023-01-29T13:39:58;11.60;;;4.03;;
68432;SDS011;55412;51.350;17.056;2023-01-29T13:42:44;10.52;;;3.30;;
68432;SDS011;55412;51.350;17.056;2023-01-29T13:45:20;10.80;;;3.63;;
68432;SDS011;55412;51.350;17.056;2023-01-29T13:48:08;9.82;;;3.42;;
68432;SDS011;55412;51.350;17.056;2023-01-29T13:50:52;10.87;;;3.20;;
68432;SDS011;55412;51.350;17.056;2023-01-29T13:53:23;10.13;;;3.40;;
68432;SDS011;55412;51.350;17.056;2023-01-29T13:55:53;10.25;;;3.72;;
68432;SDS011;55412;51.350;17.056;2023-01-29T14:00:58;10.15;;;4.18;;
68432;SDS011;55412;51.350;17.056;2023-01-29T14:06:00;10.63;;;3.97;;
68432;SDS011;55412;51.350;17.056;2023-01-29T14:13:46;9.45;;;3.58;;
68432;SDS011;55412;51.350;17.056;2023-01-29T14:21:47;11.45;;;4.60;;
68432;SDS011;55412;51.350;17.056;2023-01-29T14:24:17;9.48;;;3.20;;
68432;SDS011;55412;51.350;17.056;2023-01-29T14:26:47;11.07;;;3.77;;
68432;SDS011;55412;51.350;17.056;2023-01-29T14:29:23;11.88;;;4.55;;
68432;SDS011;55412;51.350;17.056;2023-01-29T14:34:43;12.43;;;4.13;;
68432;SDS011;55412;51.350;17.056;2023-01-29T14:39:52;12.17;;;4.20;;
68432;SDS011;55412;51.350;17.056;2023-01-29T14:53:24;13.77;;;5.00;;
68432;SDS011;55412;51.350;17.056;2023-01-29T14:58:37;12.02;;;4.68;;
68432;SDS011;55412;51.350;17.056;2023-01-29T15:03:58;11.50;;;4.10;;
68432;SDS011;55412;51.350;17.056;2023-01-29T15:06:37;13.43;;;4.33;;
68432;SDS011;55412;51.350;17.056;2023-01-29T15:12:17;11.23;;;5.10;;
68432;SDS011;55412;51.350;17.056;2023-01-29T15:15:12;14.82;;;3.95;;
68432;SDS011;55412;51.350;17.056;2023-01-29T15:18:16;13.93;;;4.95;;
68432;SDS011;55412;51.350;17.056;2023-01-29T15:21:02;14.57;;;5.20;;
68432;SDS011;55412;51.350;17.056;2023-01-29T15:23:38;9.85;;;3.75;;
68432;SDS011;55412;51.350;17.056;2023-01-29T15:26:06;12.25;;;4.75;;
68432;SDS011;55412;51.350;17.056;2023-01-29T15:28:37;10.45;;;4.63;;
68432;SDS011;55412;51.350;17.056;2023-01-29T15:31:04;12.60;;;4.57;;
68432;SDS011;55412;51.350;17.056;2023-01-29T15:33:37;11.23;;;4.37;;
68432;SDS011;55412;51.350;17.056;2023-01-29T15:36:07;11.38;;;4.50;;
68432;SDS011;55412;51.350;17.056;2023-01-29T15:41:43;10.48;;;4.07;;
68432;SDS011;55412;51.350;17.056;2023-01-29T15:44:14;11.13;;;4.10;;
68432;SDS011;55412;51.350;17.056;2023-01-29T15:46:55;14.90;;;4.50;;
68432;SDS011;55412;51.350;17.056;2023-01-29T15:49:34;13.20;;;4.40;;
68432;SDS011;55412;51.350;17.056;2023-01-29T15:52:07;12.32;;;4.30;;
68432;SDS011;55412;51.350;17.056;2023-01-29T15:54:57;10.45;;;3.63;;
68432;SDS011;55412;51.350;17.056;2023-01-29T15:57:32;15.18;;;4.47;;
68432;SDS011;55412;51.350;17.056;2023-01-29T16:00:05;13.93;;;4.77;;
68432;SDS011;55412;51.350;17.056;2023-01-29T16:05:03;11.50;;;4.57;;
68432;SDS011;55412;51.350;17.056;2023-01-29T16:07:36;12.75;;;4.40;;
68432;SDS011;55412;51.350;17.056;2023-01-29T16:10:03;11.88;;;4.97;;
68432;SDS011;55412;51.350;17.056;2023-01-29T16:12:31;12.07;;;4.97;;
68432;SDS011;55412;51.350;17.056;2023-01-29T16:14:58;17.88;;;5.25;;
68432;SDS011;55412;51.350;17.056;2023-01-29T16:17:32;14.05;;;5.88;;
68432;SDS011;55412;51.350;17.056;2023-01-29T16:20:03;13.00;;;4.60;;
68432;SDS011;55412;51.350;17.056;2023-01-29T16:22:33;12.27;;;5.38;;
68432;SDS011;55412;51.350;17.056;2023-01-29T16:25:05;15.53;;;4.87;;
68432;SDS011;55412;51.350;17.056;2023-01-29T16:27:37;12.80;;;4.43;;
68432;SDS011;55412;51.350;17.056;2023-01-29T16:30:07;11.55;;;4.82;;
68432;SDS011;55412;51.350;17.056;2023-01-29T16:32:38;9.88;;;4.95;;
68432;SDS011;55412;51.350;17.056;2023-01-29T16:35:04;10.15;;;4.60;;
68432;SDS011;55412;51.350;17.056;2023-01-29T16:37:32;13.97;;;4.70;;
68432;SDS011;55412;51.350;17.056;2023-01-29T16:40:09;12.40;;;4.78;;
68432;SDS011;55412;51.350;17.056;2023-01-29T16:42:56;11.68;;;4.57;;
68432;SDS011;55412;51.350;17.056;2023-01-29T16:48:51;10.02;;;3.97;;
68432;SDS011;55412;51.350;17.056;2023-01-29T16:51:37;11.63;;;4.40;;
68432;SDS011;55412;51.350;17.056;2023-01-29T16:54:10;10.23;;;3.53;;
68432;SDS011;55412;51.350;17.056;2023-01-29T16:56:45;10.93;;;4.68;;
68432;SDS011;55412;51.350;17.056;2023-01-29T17:02:32;10.70;;;3.63;;
68432;SDS011;55412;51.350;17.056;2023-01-29T17:05:06;10.47;;;3.53;;
68432;SDS011;55412;51.350;17.056;2023-01-29T17:07:35;11.35;;;4.15;;
68432;SDS011;55412;51.350;17.056;2023-01-29T17:10:02;10.15;;;4.03;;
68432;SDS011;55412;51.350;17.056;2023-01-29T17:12:31;13.60;;;4.18;;
68432;SDS011;55412;51.350;17.056;2023-01-29T17:15:02;12.13;;;4.30;;
68432;SDS011;55412;51.350;17.056;2023-01-29T17:17:55;12.30;;;3.90;;
68432;SDS011;55412;51.350;17.056;2023-01-29T17:20:21;10.95;;;3.58;;
68432;SDS011;55412;51.350;17.056;2023-01-29T17:22:47;10.90;;;3.92;;
68432;SDS011;55412;51.350;17.056;2023-01-29T17:25:13;10.95;;;3.65;;
68432;SDS011;55412;51.350;17.056;2023-01-29T17:27:42;8.82;;;3.55;;
68432;SDS011;55412;51.350;17.056;2023-01-29T17:30:16;8.93;;;3.20;;
68432;SDS011;55412;51.350;17.056;2023-01-29T17:32:48;9.45;;;3.78;;
68432;SDS011;55412;51.350;17.056;2023-01-29T17:35:14;10.70;;;3.85;;
68432;SDS011;55412;51.350;17.056;2023-01-29T17:37:41;11.15;;;3.70;;
68432;SDS011;55412;51.350;17.056;2023-01-29T17:40:24;10.07;;;3.67;;
68432;SDS011;55412;51.350;17.056;2023-01-29T17:42:59;8.07;;;3.30;;
68432;SDS011;55412;51.350;17.056;2023-01-29T17:45:25;10.07;;;3.60;;
68432;SDS011;55412;51.350;17.056;2023-01-29T17:47:51;10.80;;;3.42;;
68432;SDS011;55412;51.350;17.056;2023-01-29T17:50:20;8.70;;;4.00;;